createdAt,value
2022-12-18T00:01:34.345Z,82.33
2022-12-18T00:04:03.923Z,92.47
2022-12-18T00:06:31.372Z,86.00
2022-12-18T00:09:00.603Z,93.43
2022-12-18T00:11:30.066Z,82.60
2022-12-18T00:13:59.414Z,83.33
2022-12-18T00:16:28.369Z,83.83
2022-12-18T00:18:57.497Z,77.27
2022-12-18T00:21:24.191Z,73.10
2022-12-18T00:23:51.772Z,81.23
2022-12-18T00:26:25.811Z,73.33
2022-12-18T00:29:00.961Z,83.30
2022-12-18T00:31:28.091Z,85.80
2022-12-18T00:33:56.944Z,82.00
2022-12-18T00:36:29.697Z,85.57
2022-12-18T00:38:58.254Z,84.33
2022-12-18T00:41:44.800Z,85.70
2022-12-18T00:44:15.069Z,76.43
2022-12-18T00:46:43.816Z,82.07
2022-12-18T00:49:11.224Z,79.57
2022-12-18T00:51:37.977Z,77.80
2022-12-18T00:54:05.843Z,87.33
2022-12-18T00:56:32.719Z,81.27
2022-12-18T00:58:59.700Z,76.87
2022-12-18T01:01:26.616Z,80.60
2022-12-18T01:03:53.723Z,78.17
2022-12-18T01:06:20.902Z,80.23
2022-12-18T01:08:48.045Z,84.97
2022-12-18T01:11:18.201Z,79.43
2022-12-18T01:13:45.258Z,77.53
2022-12-18T01:16:13.797Z,80.73
2022-12-18T01:18:41.050Z,83.53
2022-12-18T01:21:14.682Z,75.80
2022-12-18T01:23:42.324Z,79.77
2022-12-18T01:26:12.326Z,76.33
2022-12-18T01:28:41.090Z,76.77
2022-12-18T01:31:22.810Z,74.77
2022-12-18T01:33:51.462Z,81.97
2022-12-18T01:36:22.211Z,80.47
2022-12-18T01:38:50.164Z,80.77
2022-12-18T01:41:18.766Z,85.57
2022-12-18T01:43:52.762Z,84.33
2022-12-18T01:46:21.946Z,78.27
2022-12-18T01:48:53.479Z,73.73
2022-12-18T01:51:21.814Z,71.93
2022-12-18T01:53:49.456Z,77.10
2022-12-18T01:56:18.704Z,78.20
2022-12-18T01:59:01.094Z,77.70
2022-12-18T02:01:30.651Z,73.73
2022-12-18T02:04:23.053Z,78.93
2022-12-18T02:07:00.811Z,68.53
2022-12-18T02:09:51.952Z,67.20
2022-12-18T02:12:31.901Z,64.07
2022-12-18T02:15:10.817Z,66.27
2022-12-18T02:17:52.252Z,67.20
2022-12-18T02:20:47.067Z,67.07
2022-12-18T02:23:28.918Z,68.43
2022-12-18T02:26:20.154Z,66.70
2022-12-18T02:28:55.579Z,68.47
2022-12-18T02:31:26.743Z,67.13
2022-12-18T02:33:59.645Z,62.50
2022-12-18T02:36:29.894Z,64.07
2022-12-18T02:38:59.914Z,72.43
2022-12-18T02:41:27.682Z,68.77
2022-12-18T02:43:58.191Z,64.47
2022-12-18T02:46:39.029Z,71.23
2022-12-18T02:49:55.835Z,69.87
2022-12-18T02:52:35.414Z,63.07
2022-12-18T02:55:24.160Z,57.87
2022-12-18T02:58:13.151Z,57.40
2022-12-18T03:00:52.265Z,66.63
2022-12-18T03:03:31.149Z,58.00
2022-12-18T03:06:05.427Z,63.40
2022-12-18T03:08:38.519Z,57.07
2022-12-18T03:11:15.175Z,57.43
2022-12-18T03:13:57.111Z,57.60
2022-12-18T03:16:30.112Z,57.80
2022-12-18T03:19:02.118Z,55.93
2022-12-18T03:21:37.710Z,57.13
2022-12-18T03:24:08.698Z,55.73
2022-12-18T03:26:40.253Z,56.03
2022-12-18T03:29:15.919Z,56.87
2022-12-18T03:31:49.508Z,55.83
2022-12-18T03:34:23.863Z,55.93
2022-12-18T03:36:50.728Z,64.07
2022-12-18T03:39:18.761Z,58.57
2022-12-18T03:42:02.214Z,47.47
2022-12-18T03:44:56.527Z,60.50
2022-12-18T03:47:30.496Z,58.80
2022-12-18T03:50:12.613Z,59.83
2022-12-18T03:52:56.884Z,56.97
2022-12-18T03:55:26.712Z,59.10
2022-12-18T03:58:00.742Z,57.30
2022-12-18T04:00:36.159Z,55.03
2022-12-18T04:03:10.051Z,62.10
2022-12-18T04:05:45.011Z,61.20
2022-12-18T04:08:13.372Z,56.10
2022-12-18T04:10:44.340Z,61.47
2022-12-18T04:13:12.100Z,60.70
2022-12-18T04:15:40.148Z,61.63
2022-12-18T04:18:10.796Z,63.13
2022-12-18T04:20:41.644Z,60.80
2022-12-18T04:23:08.967Z,58.87
2022-12-18T04:25:38.034Z,64.03
2022-12-18T04:28:08.388Z,66.53
2022-12-18T04:30:36.824Z,59.57
2022-12-18T04:33:03.777Z,57.53
2022-12-18T04:35:32.348Z,56.77
2022-12-18T04:37:59.632Z,62.77
2022-12-18T04:40:27.876Z,58.87
2022-12-18T04:42:55.114Z,59.17
2022-12-18T04:45:22.189Z,61.87
2022-12-18T04:47:49.011Z,57.13
2022-12-18T04:50:16.089Z,56.73
2022-12-18T04:52:42.836Z,64.27
2022-12-18T04:55:09.859Z,55.47
2022-12-18T04:57:36.663Z,61.37
2022-12-18T05:00:04.082Z,56.47
2022-12-18T05:02:31.164Z,61.60
2022-12-18T05:04:58.234Z,65.87
2022-12-18T05:07:25.147Z,61.70
2022-12-18T05:09:52.167Z,62.77
2022-12-18T05:12:18.940Z,58.17
2022-12-18T05:14:45.951Z,59.70
2022-12-18T05:17:12.723Z,60.53
2022-12-18T05:19:39.724Z,56.03
2022-12-18T05:22:09.814Z,56.73
2022-12-18T05:24:37.032Z,57.90
2022-12-18T05:27:03.961Z,54.23
2022-12-18T05:29:31.093Z,64.17
2022-12-18T05:31:57.921Z,58.23
2022-12-18T05:34:25.092Z,59.07
2022-12-18T05:36:51.822Z,57.03
2022-12-18T05:39:18.924Z,55.77
2022-12-18T05:41:45.620Z,54.57
2022-12-18T05:44:12.659Z,62.20
2022-12-18T05:46:39.380Z,60.47
2022-12-18T05:49:06.402Z,55.20
2022-12-18T05:51:33.143Z,56.90
2022-12-18T05:54:00.139Z,59.97
2022-12-18T05:56:26.944Z,64.40
2022-12-18T05:58:55.233Z,59.33
2022-12-18T06:01:25.621Z,59.57
2022-12-18T06:03:53.261Z,58.53
2022-12-18T06:06:25.868Z,61.23
2022-12-18T06:08:54.541Z,60.37
2022-12-18T06:11:24.191Z,57.93
2022-12-18T06:13:57.931Z,61.63
2022-12-18T06:16:26.035Z,59.53
2022-12-18T06:18:53.116Z,57.43
2022-12-18T06:21:19.851Z,51.37
2022-12-18T06:23:46.847Z,54.10
2022-12-18T06:26:14.659Z,56.93
2022-12-18T06:28:41.837Z,54.70
2022-12-18T06:31:10.017Z,48.23
2022-12-18T06:33:37.544Z,51.90
2022-12-18T06:36:05.802Z,59.67
2022-12-18T06:38:34.151Z,52.67
2022-12-18T06:41:01.114Z,51.00
2022-12-18T06:43:28.211Z,59.93
2022-12-18T06:46:01.814Z,59.60
2022-12-18T06:48:28.981Z,59.63
2022-12-18T06:50:55.852Z,53.40
2022-12-18T06:53:23.160Z,61.80
2022-12-18T06:55:50.799Z,54.53
2022-12-18T06:58:18.400Z,59.33
2022-12-18T07:00:45.279Z,57.60
2022-12-18T07:03:12.996Z,63.27
2022-12-18T07:05:43.055Z,76.13
2022-12-18T07:08:10.122Z,65.93
2022-12-18T07:10:48.298Z,65.07
2022-12-18T07:13:18.118Z,66.07
2022-12-18T07:15:45.107Z,66.23
2022-12-18T07:18:12.341Z,74.93
2022-12-18T07:20:40.215Z,78.17
2022-12-18T07:23:07.255Z,93.97
2022-12-18T07:25:37.945Z,85.87
2022-12-18T07:28:05.509Z,81.87
2022-12-18T07:30:32.433Z,82.63
2022-12-18T07:32:59.497Z,79.00
2022-12-18T07:35:26.252Z,87.70
2022-12-18T07:37:53.294Z,88.33
2022-12-18T07:40:20.118Z,84.73
2022-12-18T07:42:47.259Z,78.53
2022-12-18T07:45:13.992Z,86.33
2022-12-18T07:47:42.264Z,74.53
2022-12-18T07:50:09.443Z,92.27
2022-12-18T07:52:36.547Z,89.87
2022-12-18T07:55:03.671Z,88.07
2022-12-18T08:00:17.781Z,83.17
2022-12-18T08:02:44.870Z,83.10
2022-12-18T08:05:11.843Z,79.43
2022-12-18T08:07:38.944Z,75.80
2022-12-18T08:10:06.577Z,72.10
2022-12-18T08:12:33.672Z,73.60
2022-12-18T08:15:00.407Z,82.07
2022-12-18T08:17:27.460Z,71.53
2022-12-18T08:19:54.231Z,74.43
2022-12-18T08:22:21.345Z,72.47
2022-12-18T08:24:48.209Z,69.27
2022-12-18T08:27:30.747Z,67.90
2022-12-18T08:29:58.163Z,57.10
2022-12-18T08:32:27.274Z,58.17
2022-12-18T08:34:54.059Z,64.50
2022-12-18T08:37:21.110Z,58.30
2022-12-18T08:39:48.601Z,57.10
2022-12-18T08:42:34.268Z,60.47
2022-12-18T08:45:01.124Z,53.47
2022-12-18T08:47:28.232Z,55.90
2022-12-18T08:49:55.072Z,51.87
2022-12-18T08:52:22.165Z,51.17
2022-12-18T08:54:48.942Z,55.07
2022-12-18T08:57:15.977Z,53.50
2022-12-18T08:59:43.053Z,57.33
2022-12-18T09:02:13.371Z,53.27
2022-12-18T09:04:40.966Z,51.97
2022-12-18T09:07:08.397Z,59.63
2022-12-18T09:09:35.133Z,53.70
2022-12-18T09:12:02.171Z,60.57
2022-12-18T09:14:28.868Z,51.37
2022-12-18T09:16:56.133Z,57.13
2022-12-18T09:19:22.957Z,55.30
2022-12-18T09:21:50.026Z,56.63
2022-12-18T09:24:17.516Z,63.47
2022-12-18T09:26:47.290Z,63.33
2022-12-18T09:29:19.024Z,64.03
2022-12-18T09:31:46.684Z,53.67
2022-12-18T09:34:13.590Z,53.57
2022-12-18T09:36:40.640Z,53.87
2022-12-18T09:39:08.734Z,57.80
2022-12-18T09:41:51.128Z,65.90
2022-12-18T09:44:47.404Z,51.10
2022-12-18T09:47:24.503Z,44.63
2022-12-18T09:49:56.080Z,49.30
2022-12-18T09:52:40.812Z,68.40
2022-12-18T09:55:36.813Z,110.87
2022-12-18T09:58:10.441Z,47.67
2022-12-18T10:00:37.489Z,57.00
2022-12-18T10:03:11.710Z,61.63
2022-12-18T10:05:54.821Z,58.63
2022-12-18T10:08:46.397Z,61.43
2022-12-18T10:11:33.375Z,74.40
2022-12-18T10:14:28.955Z,87.03
2022-12-18T10:17:06.980Z,59.13
2022-12-18T10:19:50.097Z,61.53
2022-12-18T10:22:24.890Z,57.40
2022-12-18T10:24:58.368Z,59.47
2022-12-18T10:27:27.728Z,61.63
2022-12-18T10:29:55.588Z,60.23
2022-12-18T10:32:25.921Z,55.00
2022-12-18T10:35:00.214Z,58.50
2022-12-18T10:37:29.779Z,51.57
2022-12-18T10:40:22.031Z,58.30
2022-12-18T10:43:12.860Z,65.63
2022-12-18T10:45:40.424Z,51.77
2022-12-18T10:48:20.277Z,59.43
2022-12-18T10:53:40.750Z,73.53
2022-12-18T10:56:08.161Z,56.20
2022-12-18T10:58:37.102Z,63.33
2022-12-18T11:01:21.111Z,66.87
2022-12-18T11:03:50.947Z,59.40
2022-12-18T11:06:22.696Z,66.00
2022-12-18T11:09:13.162Z,65.37
2022-12-18T11:11:41.748Z,67.63
2022-12-18T11:14:23.409Z,74.67
2022-12-18T11:19:42.076Z,79.27
2022-12-18T11:22:22.782Z,65.80
2022-12-18T11:25:30.346Z,79.10
2022-12-18T11:28:06.845Z,74.70
2022-12-18T11:30:37.150Z,94.90
2022-12-18T11:33:20.153Z,85.17
2022-12-18T11:35:53.861Z,82.63
2022-12-18T11:38:27.966Z,86.47
2022-12-18T11:41:04.602Z,84.23
2022-12-18T11:43:51.257Z,91.60
2022-12-18T11:46:54.002Z,89.50
2022-12-18T11:49:29.964Z,78.33
2022-12-18T11:52:19.787Z,75.23
2022-12-18T11:54:46.864Z,83.70
2022-12-18T11:57:16.325Z,75.07
2022-12-18T11:59:58.979Z,85.93
2022-12-18T12:02:34.740Z,85.33
2022-12-18T12:05:27.029Z,86.07
2022-12-18T12:08:10.575Z,82.17
2022-12-18T12:10:46.543Z,85.20
2022-12-18T12:13:37.715Z,85.77
2022-12-18T12:16:07.852Z,98.47
2022-12-18T12:19:02.212Z,92.50
2022-12-18T12:21:44.150Z,87.57
2022-12-18T12:24:49.195Z,84.77
2022-12-18T12:27:22.283Z,87.97
2022-12-18T12:30:00.884Z,82.13
2022-12-18T12:32:34.977Z,84.17
2022-12-18T12:35:11.664Z,86.23
2022-12-18T12:37:57.502Z,92.77
2022-12-18T12:43:49.225Z,78.83
2022-12-18T12:46:20.828Z,93.57
2022-12-18T12:48:53.766Z,89.43
2022-12-18T12:51:23.844Z,85.27
2022-12-18T12:53:51.430Z,89.30
2022-12-18T12:56:23.065Z,98.17
2022-12-18T12:58:58.287Z,95.70
2022-12-18T13:01:56.953Z,91.33
2022-12-18T13:05:02.402Z,101.50
2022-12-18T13:07:38.251Z,89.30
2022-12-18T13:10:15.486Z,87.20
2022-12-18T13:13:01.991Z,94.97
2022-12-18T13:15:44.717Z,83.27
2022-12-18T13:18:24.040Z,83.83
2022-12-18T13:21:04.750Z,85.47
2022-12-18T13:23:39.682Z,98.57
2022-12-18T13:26:07.008Z,105.80
2022-12-18T13:28:33.792Z,94.37
2022-12-18T13:31:02.599Z,96.60
2022-12-18T13:33:29.924Z,111.30
2022-12-18T13:36:09.668Z,100.37
2022-12-18T13:38:39.153Z,98.83
2022-12-18T13:41:21.493Z,106.53
2022-12-18T13:43:58.996Z,102.13
2022-12-18T13:46:48.992Z,96.27
2022-12-18T13:49:25.273Z,104.03
2022-12-18T13:51:55.392Z,104.37
2022-12-18T13:54:37.692Z,103.50
2022-12-18T13:57:07.382Z,124.33
2022-12-18T13:59:34.151Z,139.43
2022-12-18T14:02:11.905Z,108.87
2022-12-18T14:04:38.842Z,121.37
2022-12-18T14:07:11.613Z,149.97
2022-12-18T14:09:47.138Z,114.33
2022-12-18T14:12:40.275Z,109.67
2022-12-18T14:15:27.393Z,127.90
2022-12-18T14:18:10.584Z,152.17
2022-12-18T14:20:43.117Z,108.87
2022-12-18T14:23:32.464Z,127.83
2022-12-18T14:26:05.355Z,118.30
2022-12-18T14:28:33.066Z,136.80
2022-12-18T14:31:00.041Z,128.83
2022-12-18T14:33:28.491Z,130.80
2022-12-18T14:36:02.244Z,130.20
2022-12-18T14:38:32.565Z,109.90
2022-12-18T14:41:01.997Z,110.70
2022-12-18T14:43:32.562Z,126.10
2022-12-18T14:46:00.117Z,132.97
2022-12-18T14:48:49.135Z,120.63
2022-12-18T14:51:21.668Z,128.37
2022-12-18T14:53:57.679Z,129.03
2022-12-18T14:56:27.791Z,114.20
2022-12-18T14:58:58.355Z,123.30
2022-12-18T15:01:34.369Z,128.20
2022-12-18T15:04:02.864Z,142.97
2022-12-18T15:06:32.678Z,155.93
2022-12-18T15:09:03.127Z,141.07
2022-12-18T15:11:33.419Z,126.57
2022-12-18T15:14:01.663Z,144.37
2022-12-18T15:16:28.711Z,146.20
2022-12-18T15:18:55.894Z,138.80
2022-12-18T15:21:22.697Z,137.97
2022-12-18T15:23:51.148Z,143.57
2022-12-18T15:26:20.654Z,145.13
2022-12-18T15:28:56.996Z,144.50
2022-12-18T15:31:38.090Z,182.07
2022-12-18T15:34:08.565Z,149.27
2022-12-18T15:36:37.943Z,148.17
2022-12-18T15:39:06.561Z,174.43
2022-12-18T15:41:36.167Z,122.73
2022-12-18T15:44:18.312Z,143.20
2022-12-18T15:46:45.103Z,131.03
2022-12-18T15:49:12.151Z,144.27
2022-12-18T15:51:40.530Z,128.50
2022-12-18T15:54:14.244Z,136.50
2022-12-18T15:56:59.741Z,139.53
2022-12-18T15:59:27.458Z,127.00
2022-12-18T16:01:54.542Z,141.77
2022-12-18T16:04:23.173Z,148.60
2022-12-18T16:07:13.999Z,141.03
2022-12-18T16:09:38.343Z,149.80
2022-12-18T16:12:07.045Z,153.13
2022-12-18T16:14:34.218Z,169.07
2022-12-18T16:17:04.594Z,160.93
2022-12-18T16:19:31.642Z,149.97
2022-12-18T16:21:59.472Z,179.87
2022-12-18T16:24:31.864Z,191.17
2022-12-18T16:27:01.198Z,217.33
2022-12-18T16:29:30.261Z,209.57
2022-12-18T16:31:58.760Z,187.90
2022-12-18T16:34:29.934Z,181.57
2022-12-18T16:37:04.980Z,188.00
2022-12-18T16:39:35.092Z,158.23
2022-12-18T16:42:15.526Z,148.10
2022-12-18T16:44:43.629Z,147.63
2022-12-18T16:47:11.102Z,138.77
2022-12-18T16:49:41.481Z,134.23
2022-12-18T16:52:09.037Z,137.23
2022-12-18T16:54:36.769Z,133.37
2022-12-18T16:57:05.422Z,131.33
2022-12-18T16:59:32.811Z,156.23
2022-12-18T17:01:59.757Z,128.60
2022-12-18T17:04:26.900Z,147.27
2022-12-18T17:06:53.935Z,126.60
2022-12-18T17:09:28.737Z,148.63
2022-12-18T17:11:56.073Z,151.13
2022-12-18T17:14:24.999Z,163.60
2022-12-18T17:17:19.914Z,178.13
2022-12-18T17:19:43.924Z,154.43
2022-12-18T17:22:10.759Z,154.93
2022-12-18T17:24:38.035Z,163.70
2022-12-18T17:27:04.971Z,160.83
2022-12-18T17:29:32.012Z,159.43
2022-12-18T17:31:59.295Z,156.93
2022-12-18T17:34:27.987Z,157.37
2022-12-18T17:36:55.085Z,166.40
2022-12-18T17:39:22.551Z,135.17
2022-12-18T17:41:49.753Z,138.87
2022-12-18T17:44:17.418Z,149.63
2022-12-18T17:46:44.700Z,132.43
2022-12-18T17:49:12.426Z,129.93
2022-12-18T17:51:39.749Z,135.43
2022-12-18T17:54:06.977Z,134.03
2022-12-18T17:56:33.960Z,146.40
2022-12-18T17:59:01.310Z,132.03
2022-12-18T18:01:28.374Z,135.73
2022-12-18T18:03:56.159Z,133.30
2022-12-18T18:06:24.369Z,135.37
2022-12-18T18:08:51.826Z,131.13
2022-12-18T18:11:39.643Z,148.83
2022-12-18T18:14:13.166Z,145.63
2022-12-18T18:16:42.434Z,148.13
2022-12-18T18:19:12.198Z,130.97
2022-12-18T18:21:41.712Z,141.53
2022-12-18T18:24:10.796Z,158.23
2022-12-18T18:26:38.011Z,155.13
2022-12-18T18:29:06.749Z,153.60
2022-12-18T18:31:40.865Z,143.20
2022-12-18T18:34:15.859Z,155.40
2022-12-18T18:36:42.840Z,159.97
2022-12-18T18:39:10.500Z,161.67
2022-12-18T18:41:37.280Z,150.17
2022-12-18T18:44:04.832Z,147.60
2022-12-18T18:46:31.720Z,136.47
2022-12-18T18:48:59.263Z,139.70
2022-12-18T18:51:28.858Z,139.13
2022-12-18T18:54:00.295Z,135.47
2022-12-18T18:59:16.894Z,125.70
2022-12-18T19:01:44.275Z,138.10
2022-12-18T19:04:11.492Z,141.90
2022-12-18T19:06:41.588Z,134.13
2022-12-18T19:09:08.917Z,145.27
2022-12-18T19:11:54.406Z,134.80
2022-12-18T19:14:21.558Z,144.97
2022-12-18T19:16:48.371Z,147.30
2022-12-18T19:19:21.080Z,144.90
2022-12-18T19:21:48.353Z,147.03
2022-12-18T19:24:15.468Z,150.03
2022-12-18T19:26:42.320Z,133.57
2022-12-18T19:29:11.797Z,130.27
2022-12-18T19:31:40.703Z,147.17
2022-12-18T19:34:08.479Z,139.50
2022-12-18T19:36:37.879Z,131.30
2022-12-18T19:39:14.428Z,157.90
2022-12-18T19:41:43.000Z,143.20
2022-12-18T19:44:12.565Z,153.33
2022-12-18T19:46:42.056Z,139.03
2022-12-18T19:49:17.451Z,136.17
2022-12-18T19:51:45.649Z,155.60
2022-12-18T19:54:16.957Z,154.13
2022-12-18T19:56:45.030Z,138.67
2022-12-18T19:59:12.224Z,152.00
2022-12-18T20:01:39.356Z,160.63
2022-12-18T20:04:06.917Z,169.07
2022-12-18T20:06:46.065Z,158.40
2022-12-18T20:09:13.382Z,146.27
2022-12-18T20:11:42.018Z,149.67
2022-12-18T20:14:11.102Z,156.10
2022-12-18T20:16:38.751Z,139.97
2022-12-18T20:19:06.255Z,132.10
2022-12-18T20:21:33.347Z,127.93
2022-12-18T20:24:01.317Z,137.43
2022-12-18T20:26:28.422Z,157.23
2022-12-18T20:28:55.955Z,149.90
2022-12-18T20:31:23.395Z,131.57
2022-12-18T20:33:52.057Z,132.60
2022-12-18T20:36:23.364Z,150.50
2022-12-18T20:38:57.050Z,142.10
2022-12-18T20:41:25.125Z,134.47
2022-12-18T20:43:52.454Z,132.83
2022-12-18T20:46:19.509Z,140.33
2022-12-18T20:48:47.732Z,141.70
2022-12-18T20:51:19.703Z,119.20
2022-12-18T20:53:47.652Z,105.40
2022-12-18T20:56:22.332Z,115.77
2022-12-18T20:58:50.578Z,122.43
2022-12-18T21:01:23.844Z,133.57
2022-12-18T21:03:51.601Z,116.37
2022-12-18T21:06:20.433Z,128.23
2022-12-18T21:08:48.169Z,129.27
2022-12-18T21:11:40.086Z,124.03
2022-12-18T21:14:19.775Z,119.27
2022-12-18T21:16:47.764Z,109.07
2022-12-18T21:19:19.984Z,100.40
2022-12-18T21:21:47.391Z,116.83
2022-12-18T21:24:15.094Z,127.63
2022-12-18T21:26:45.402Z,107.67
2022-12-18T21:29:19.606Z,114.70
2022-12-18T21:31:46.991Z,105.83
2022-12-18T21:34:26.361Z,112.50
2022-12-18T21:36:54.904Z,99.43
2022-12-18T21:39:22.579Z,113.53
2022-12-18T21:42:09.103Z,103.70
2022-12-18T21:44:42.062Z,98.97
2022-12-18T21:47:22.001Z,109.37
2022-12-18T21:49:53.859Z,102.50
2022-12-18T21:52:28.636Z,109.73
2022-12-18T21:55:09.162Z,114.10
2022-12-18T21:57:38.488Z,119.40
2022-12-18T22:00:07.515Z,106.60
2022-12-18T22:02:40.476Z,109.40
2022-12-18T22:05:08.277Z,119.60
2022-12-18T22:07:35.636Z,111.13
2022-12-18T22:10:02.678Z,119.27
2022-12-18T22:12:43.505Z,112.90
2022-12-18T22:15:13.144Z,113.27
2022-12-18T22:17:48.199Z,125.03
2022-12-18T22:20:16.112Z,117.83
2022-12-18T22:22:43.059Z,142.97
2022-12-18T22:25:10.700Z,137.53
2022-12-18T22:27:37.944Z,135.23
2022-12-18T22:30:05.719Z,133.43
2022-12-18T22:32:36.161Z,136.57
2022-12-18T22:35:08.281Z,142.03
2022-12-18T22:37:37.434Z,151.27
2022-12-18T22:40:05.940Z,158.17
2022-12-18T22:42:32.940Z,160.33
2022-12-18T22:45:00.406Z,157.47
2022-12-18T22:47:30.117Z,138.23
2022-12-18T22:49:58.368Z,139.63
2022-12-18T22:52:25.476Z,138.30
2022-12-18T22:54:54.131Z,132.33
2022-12-18T22:57:22.825Z,136.80
2022-12-18T22:59:50.953Z,129.33
2022-12-18T23:02:19.078Z,142.93
2022-12-18T23:04:47.620Z,142.97
2022-12-18T23:07:15.068Z,137.07
2022-12-18T23:09:42.191Z,128.70
2022-12-18T23:12:14.995Z,135.97
2022-12-18T23:14:42.462Z,130.90
2022-12-18T23:17:09.288Z,121.80
2022-12-18T23:19:36.441Z,120.70
2022-12-18T23:22:07.243Z,112.00
2022-12-18T23:24:37.139Z,110.20
2022-12-18T23:27:04.847Z,104.00
2022-12-18T23:29:36.227Z,102.10
2022-12-18T23:32:03.079Z,109.77
2022-12-18T23:34:30.081Z,102.50
2022-12-18T23:36:57.478Z,110.87
2022-12-18T23:39:29.752Z,97.40
2022-12-18T23:41:58.565Z,108.67
2022-12-18T23:44:26.072Z,101.50
2022-12-18T23:46:53.138Z,98.27
2022-12-18T23:49:20.270Z,88.90
2022-12-18T23:51:47.019Z,95.60
2022-12-18T23:54:14.180Z,84.37
2022-12-18T23:56:41.027Z,93.23
2022-12-18T23:59:07.959Z,96.53
